Detalii statie SOMALEX GHIMPATI [0000198E]

Toti senzorii

Date Temperatura solului [C]Precipitatii [mm]Voltaj baterie [mV]Leaf Wetness [Min]HC Air temperature [C]HC Relative humidity [%]Punctul de roua [C]
medieminmaxsumaultimatimpmedieminmaxmediemediemin
2017-12-10 22:00:00 2.8 2.8 2.8 0 6806 -0.07 -0.11 -0.03 0 0 0
2017-12-10 22:10:00 2.7 2.7 2.8 0 6786 -0.22 -0.23 -0.22 0 0 0
2017-12-10 22:20:00 2.7 2.7 2.7 0 6806 -0.27 -0.31 -0.24 0 0 0
2017-12-10 22:30:00 2.8 2.8 2.8 0 6806 -0.28 -0.32 -0.25 0 0 0
2017-12-10 22:40:00 2.7 2.6 2.8 0 6816 -0.31 -0.41 -0.22 0 0 0
2017-12-10 22:50:00 2.7 2.6 2.8 0 6816 -0.33 -0.35 -0.32 0 0 0
2017-12-10 23:00:00 2.6 2.6 2.7 0 6816 -0.08 -0.14 -0.03 0 0 0
2017-12-10 23:10:00 2.6 2.6 2.7 0 6786 -0.17 -0.24 -0.11 0 0 0
2017-12-10 23:20:00 2.5 2.5 2.6 0 6796 -0.38 -0.4 -0.36 0 0 0
2017-12-10 23:30:00 2.6 2.5 2.7 0 6806 -0.37 -0.39 -0.35 0 0 0
2017-12-10 23:40:00 2.5 2.5 2.5 0 6806 -0.41 -0.45 -0.37 0 0 0
2017-12-10 23:50:00 2.5 2.5 2.5 0 6816 -0.5 -0.54 -0.46 0 0 0
2017-12-11 00:00:00 2.4 2.4 2.4 0 6816 -0.61 -0.66 -0.57 0 0 0
2017-12-11 00:10:00 2.4 2.4 2.4 0 6748 -0.62 -0.66 -0.59 0 0 0
2017-12-11 00:20:00 2.3 2.3 2.4 0 6786 -0.54 -0.56 -0.52 0 0 0
2017-12-11 00:30:00 2.4 2.4 2.4 0 6796 -0.76 -0.87 -0.65 0 0 0
2017-12-11 00:40:00 2.4 2.4 2.4 0 6806 -0.98 -0.98 -0.98 0 0 0
2017-12-11 00:50:00 2.3 2.2 2.4 0 6806 -0.96 -0.97 -0.96 0 0 0
2017-12-11 01:00:00 2.4 2.4 2.5 0 6816 -0.85 -0.87 -0.83 0 0 0
2017-12-11 01:10:00 2.3 2.2 2.4 0 6786 -0.72 -0.76 -0.68 0 0 0
2017-12-11 01:20:00 2.2 2.2 2.3 0 6796 -0.61 -0.64 -0.58 0 0 0
2017-12-11 01:30:00 2.3 2.3 2.3 0 6806 -0.66 -0.68 -0.64 0 0 0
2017-12-11 01:40:00 2.2 2.2 2.3 0 6806 -0.93 -1.01 -0.85 0 0 0
2017-12-11 01:50:00 2.3 2.3 2.3 0 6816 -1.06 -1.11 -1.02 0 0 0
2017-12-11 02:00:00 2.3 2.3 2.3 0 6816 -0.88 -0.95 -0.82 0 0 0
2017-12-11 02:10:00 2.2 2.2 2.3 0 6776 -0.65 -0.7 -0.6 0 0 0
2017-12-11 02:20:00 2.2 2.2 2.3 0 6796 -0.59 -0.6 -0.59 0 0 0
2017-12-11 02:30:00 2.1 2 2.2 0 6806 -0.76 -0.84 -0.69 0 0 0
2017-12-11 02:40:00 2.1 2.1 2.2 0 6806 -0.84 -0.88 -0.81 0 0 0
2017-12-11 02:50:00 2.1 2.1 2.2 0 6816 -0.75 -0.77 -0.73 0 0 0
2017-12-11 03:00:00 2.2 2.2 2.2 0 6806 -0.94 -1 -0.89 0 0 0
2017-12-11 03:10:00 2.2 2.2 2.2 0 6776 -0.93 -0.95 -0.92 0 0 0
2017-12-11 03:20:00 2 2 2 0 6796 -0.99 -1.05 -0.94 0 0 0
2017-12-11 03:30:00 2.1 2 2.2 0 6796 -1.05 -1.1 -1 0 0 0
2017-12-11 03:40:00 2 1.9 2.1 0 6806 -1.09 -1.11 -1.08 0 0 0
2017-12-11 03:50:00 2 2 2 0 6806 -1.18 -1.26 -1.1 0 0 0
2017-12-11 04:00:00 2 2 2.1 0 6806 -1.58 -1.63 -1.54 0 0 0
2017-12-11 04:10:00 2 2 2 0 6776 -1.73 -1.76 -1.71 0 0 0
2017-12-11 04:20:00 2 2 2 0 6796 -1.62 -1.71 -1.54 0 0 0
2017-12-11 04:30:00 2 2 2 0 6796 -1.27 -1.35 -1.2 0 0 0
2017-12-11 04:40:00 2 2 2.1 0 6806 -1.4 -1.54 -1.26 0 0 0
2017-12-11 04:50:00 1.9 1.9 1.9 0 6806 -1.78 -1.85 -1.71 0 0 0
2017-12-11 05:00:00 2 2 2 0 6806 -1.87 -1.88 -1.86 0 0 0
2017-12-11 05:10:00 1.9 1.9 2 0 6776 -1.84 -1.86 -1.83 0 0 0
2017-12-11 05:20:00 1.9 1.9 1.9 0 6786 -2.03 -2.1 -1.96 0 0 0
2017-12-11 05:30:00 1.9 1.9 1.9 0 6796 -2.3 -2.36 -2.24 0 0 0
2017-12-11 05:40:00 1.9 1.9 2 0 6796 -2.42 -2.45 -2.39 0 0 0
2017-12-11 05:50:00 1.8 1.8 1.9 0 6806 -2.52 -2.55 -2.49 0 0 0